sensor_id;sensor_type;location;lat;lon;timestamp;P1;durP1;ratioP1;P2;durP2;ratioP2
27800;SDS011;15181;49.112;11.930;2022-10-16T00:00:37;16.35;;;15.20;;
27800;SDS011;15181;49.112;11.930;2022-10-16T00:03:05;17.45;;;15.95;;
27800;SDS011;15181;49.112;11.930;2022-10-16T00:05:32;16.63;;;15.20;;
27800;SDS011;15181;49.112;11.930;2022-10-16T00:07:59;16.48;;;15.20;;
27800;SDS011;15181;49.112;11.930;2022-10-16T00:10:27;16.85;;;15.48;;
27800;SDS011;15181;49.112;11.930;2022-10-16T00:12:56;16.92;;;15.35;;
27800;SDS011;15181;49.112;11.930;2022-10-16T00:15:23;16.13;;;15.20;;
27800;SDS011;15181;49.112;11.930;2022-10-16T00:17:50;16.98;;;15.55;;
27800;SDS011;15181;49.112;11.930;2022-10-16T00:20:17;16.40;;;15.07;;
27800;SDS011;15181;49.112;11.930;2022-10-16T00:22:44;15.90;;;14.90;;
27800;SDS011;15181;49.112;11.930;2022-10-16T00:25:10;16.38;;;15.10;;
27800;SDS011;15181;49.112;11.930;2022-10-16T00:27:37;16.63;;;15.40;;
27800;SDS011;15181;49.112;11.930;2022-10-16T00:30:07;17.08;;;15.70;;
27800;SDS011;15181;49.112;11.930;2022-10-16T00:32:34;16.63;;;15.43;;
27800;SDS011;15181;49.112;11.930;2022-10-16T00:35:01;16.73;;;15.50;;
27800;SDS011;15181;49.112;11.930;2022-10-16T00:37:28;16.27;;;15.35;;
27800;SDS011;15181;49.112;11.930;2022-10-16T00:39:55;16.42;;;15.45;;
27800;SDS011;15181;49.112;11.930;2022-10-16T00:42:22;18.08;;;16.63;;
27800;SDS011;15181;49.112;11.930;2022-10-16T00:44:50;17.58;;;16.30;;
27800;SDS011;15181;49.112;11.930;2022-10-16T00:47:21;18.05;;;16.75;;
27800;SDS011;15181;49.112;11.930;2022-10-16T00:49:53;17.63;;;16.48;;
27800;SDS011;15181;49.112;11.930;2022-10-16T00:52:24;17.83;;;16.52;;
27800;SDS011;15181;49.112;11.930;2022-10-16T00:54:51;17.92;;;16.83;;
27800;SDS011;15181;49.112;11.930;2022-10-16T00:57:19;17.20;;;16.13;;
27800;SDS011;15181;49.112;11.930;2022-10-16T00:59:47;17.95;;;16.63;;
27800;SDS011;15181;49.112;11.930;2022-10-16T01:02:14;16.90;;;15.70;;
27800;SDS011;15181;49.112;11.930;2022-10-16T01:04:44;16.98;;;15.98;;
27800;SDS011;15181;49.112;11.930;2022-10-16T01:07:14;17.45;;;16.10;;
27800;SDS011;15181;49.112;11.930;2022-10-16T01:09:51;17.83;;;16.67;;
27800;SDS011;15181;49.112;11.930;2022-10-16T01:12:32;17.98;;;16.58;;
27800;SDS011;15181;49.112;11.930;2022-10-16T01:15:06;17.52;;;16.33;;
27800;SDS011;15181;49.112;11.930;2022-10-16T01:17:39;16.88;;;15.88;;
27800;SDS011;15181;49.112;11.930;2022-10-16T01:20:14;17.60;;;16.23;;
27800;SDS011;15181;49.112;11.930;2022-10-16T01:22:50;17.15;;;15.98;;
27800;SDS011;15181;49.112;11.930;2022-10-16T01:25:31;17.77;;;16.25;;
27800;SDS011;15181;49.112;11.930;2022-10-16T01:28:18;16.88;;;15.75;;
27800;SDS011;15181;49.112;11.930;2022-10-16T01:30:52;16.48;;;15.43;;
27800;SDS011;15181;49.112;11.930;2022-10-16T01:33:24;16.90;;;15.45;;
27800;SDS011;15181;49.112;11.930;2022-10-16T01:35:56;16.23;;;15.05;;
27800;SDS011;15181;49.112;11.930;2022-10-16T01:38:28;16.30;;;15.30;;
27800;SDS011;15181;49.112;11.930;2022-10-16T01:40:58;15.82;;;14.82;;
27800;SDS011;15181;49.112;11.930;2022-10-16T01:43:33;15.63;;;14.65;;
27800;SDS011;15181;49.112;11.930;2022-10-16T01:46:03;15.98;;;14.70;;
27800;SDS011;15181;49.112;11.930;2022-10-16T01:48:33;16.50;;;14.82;;
27800;SDS011;15181;49.112;11.930;2022-10-16T01:51:04;16.48;;;14.93;;
27800;SDS011;15181;49.112;11.930;2022-10-16T01:53:33;16.25;;;14.88;;
27800;SDS011;15181;49.112;11.930;2022-10-16T01:56:00;16.55;;;14.93;;
27800;SDS011;15181;49.112;11.930;2022-10-16T01:58:33;16.60;;;15.25;;
27800;SDS011;15181;49.112;11.930;2022-10-16T02:01:03;16.25;;;15.07;;
27800;SDS011;15181;49.112;11.930;2022-10-16T02:03:34;16.05;;;15.05;;
27800;SDS011;15181;49.112;11.930;2022-10-16T02:06:03;16.00;;;14.82;;
27800;SDS011;15181;49.112;11.930;2022-10-16T02:08:30;16.10;;;14.93;;
27800;SDS011;15181;49.112;11.930;2022-10-16T02:10:57;16.58;;;15.13;;
27800;SDS011;15181;49.112;11.930;2022-10-16T02:13:27;16.25;;;14.93;;
27800;SDS011;15181;49.112;11.930;2022-10-16T02:16:00;16.05;;;15.05;;
27800;SDS011;15181;49.112;11.930;2022-10-16T02:18:27;16.63;;;15.40;;
27800;SDS011;15181;49.112;11.930;2022-10-16T02:20:57;15.75;;;14.63;;
27800;SDS011;15181;49.112;11.930;2022-10-16T02:23:29;16.35;;;14.95;;
27800;SDS011;15181;49.112;11.930;2022-10-16T02:26:03;16.17;;;14.93;;
27800;SDS011;15181;49.112;11.930;2022-10-16T02:28:34;15.63;;;14.70;;
27800;SDS011;15181;49.112;11.930;2022-10-16T02:31:09;15.48;;;14.48;;
27800;SDS011;15181;49.112;11.930;2022-10-16T02:33:37;16.10;;;14.98;;
27800;SDS011;15181;49.112;11.930;2022-10-16T02:36:08;15.63;;;14.70;;
27800;SDS011;15181;49.112;11.930;2022-10-16T02:38:36;16.23;;;15.10;;
27800;SDS011;15181;49.112;11.930;2022-10-16T02:41:03;16.67;;;15.43;;
27800;SDS011;15181;49.112;11.930;2022-10-16T02:43:30;15.68;;;14.55;;
27800;SDS011;15181;49.112;11.930;2022-10-16T02:45:58;17.42;;;15.57;;
27800;SDS011;15181;49.112;11.930;2022-10-16T02:48:27;16.65;;;15.23;;
27800;SDS011;15181;49.112;11.930;2022-10-16T02:50:54;15.65;;;14.75;;
27800;SDS011;15181;49.112;11.930;2022-10-16T02:53:22;15.82;;;14.60;;
27800;SDS011;15181;49.112;11.930;2022-10-16T02:55:49;16.60;;;15.30;;
27800;SDS011;15181;49.112;11.930;2022-10-16T02:58:15;16.25;;;15.05;;
27800;SDS011;15181;49.112;11.930;2022-10-16T03:00:42;15.77;;;14.88;;
27800;SDS011;15181;49.112;11.930;2022-10-16T03:03:09;16.05;;;14.95;;
27800;SDS011;15181;49.112;11.930;2022-10-16T03:05:37;16.63;;;15.10;;
27800;SDS011;15181;49.112;11.930;2022-10-16T03:08:05;16.15;;;15.15;;
27800;SDS011;15181;49.112;11.930;2022-10-16T03:10:31;16.20;;;15.07;;
27800;SDS011;15181;49.112;11.930;2022-10-16T03:12:58;16.58;;;15.30;;
27800;SDS011;15181;49.112;11.930;2022-10-16T03:15:25;16.88;;;15.70;;
27800;SDS011;15181;49.112;11.930;2022-10-16T03:17:53;16.40;;;15.38;;
27800;SDS011;15181;49.112;11.930;2022-10-16T03:20:20;16.35;;;15.30;;
27800;SDS011;15181;49.112;11.930;2022-10-16T03:22:48;17.02;;;15.68;;
27800;SDS011;15181;49.112;11.930;2022-10-16T03:25:15;16.90;;;15.70;;
27800;SDS011;15181;49.112;11.930;2022-10-16T03:27:42;17.50;;;16.10;;
27800;SDS011;15181;49.112;11.930;2022-10-16T03:30:09;17.90;;;16.60;;
27800;SDS011;15181;49.112;11.930;2022-10-16T03:32:36;17.58;;;16.38;;
27800;SDS011;15181;49.112;11.930;2022-10-16T03:35:04;17.73;;;16.30;;
27800;SDS011;15181;49.112;11.930;2022-10-16T03:37:31;17.17;;;16.02;;
27800;SDS011;15181;49.112;11.930;2022-10-16T03:39:59;16.95;;;15.85;;
27800;SDS011;15181;49.112;11.930;2022-10-16T03:42:26;16.85;;;15.82;;
27800;SDS011;15181;49.112;11.930;2022-10-16T03:44:53;17.30;;;15.88;;
27800;SDS011;15181;49.112;11.930;2022-10-16T03:47:20;16.98;;;15.60;;
27800;SDS011;15181;49.112;11.930;2022-10-16T03:49:48;16.92;;;15.88;;
27800;SDS011;15181;49.112;11.930;2022-10-16T03:52:15;17.50;;;16.20;;
27800;SDS011;15181;49.112;11.930;2022-10-16T03:54:42;18.02;;;16.35;;
27800;SDS011;15181;49.112;11.930;2022-10-16T03:57:10;17.70;;;16.55;;
27800;SDS011;15181;49.112;11.930;2022-10-16T03:59:37;18.38;;;17.08;;
27800;SDS011;15181;49.112;11.930;2022-10-16T04:02:04;18.83;;;17.20;;
27800;SDS011;15181;49.112;11.930;2022-10-16T04:04:31;16.88;;;15.68;;
27800;SDS011;15181;49.112;11.930;2022-10-16T04:06:58;16.92;;;15.75;;
27800;SDS011;15181;49.112;11.930;2022-10-16T04:09:25;17.63;;;16.33;;
27800;SDS011;15181;49.112;11.930;2022-10-16T04:11:52;17.40;;;16.40;;
27800;SDS011;15181;49.112;11.930;2022-10-16T04:14:20;17.27;;;16.27;;
27800;SDS011;15181;49.112;11.930;2022-10-16T04:16:47;16.98;;;16.00;;
27800;SDS011;15181;49.112;11.930;2022-10-16T04:19:14;16.77;;;15.68;;
27800;SDS011;15181;49.112;11.930;2022-10-16T04:21:41;16.88;;;15.88;;
27800;SDS011;15181;49.112;11.930;2022-10-16T04:24:08;17.08;;;15.98;;
27800;SDS011;15181;49.112;11.930;2022-10-16T04:26:36;16.77;;;15.45;;
27800;SDS011;15181;49.112;11.930;2022-10-16T04:29:03;17.27;;;15.95;;
27800;SDS011;15181;49.112;11.930;2022-10-16T04:31:32;16.98;;;15.80;;
27800;SDS011;15181;49.112;11.930;2022-10-16T04:33:59;16.90;;;15.73;;
27800;SDS011;15181;49.112;11.930;2022-10-16T04:36:26;16.95;;;15.65;;
27800;SDS011;15181;49.112;11.930;2022-10-16T04:38:53;17.73;;;16.05;;
27800;SDS011;15181;49.112;11.930;2022-10-16T04:41:20;16.63;;;15.43;;
27800;SDS011;15181;49.112;11.930;2022-10-16T04:43:47;16.92;;;15.63;;
27800;SDS011;15181;49.112;11.930;2022-10-16T04:46:14;17.25;;;15.93;;
27800;SDS011;15181;49.112;11.930;2022-10-16T04:48:42;16.00;;;14.90;;
27800;SDS011;15181;49.112;11.930;2022-10-16T04:51:09;16.45;;;15.27;;
27800;SDS011;15181;49.112;11.930;2022-10-16T04:53:36;15.88;;;14.98;;
27800;SDS011;15181;49.112;11.930;2022-10-16T04:56:03;16.73;;;15.30;;
27800;SDS011;15181;49.112;11.930;2022-10-16T04:58:30;17.02;;;15.95;;
27800;SDS011;15181;49.112;11.930;2022-10-16T05:00:58;17.30;;;16.08;;
27800;SDS011;15181;49.112;11.930;2022-10-16T05:03:25;16.80;;;15.30;;
27800;SDS011;15181;49.112;11.930;2022-10-16T05:05:53;16.40;;;15.38;;
27800;SDS011;15181;49.112;11.930;2022-10-16T05:08:20;16.60;;;15.63;;
27800;SDS011;15181;49.112;11.930;2022-10-16T05:10:47;17.48;;;16.20;;
27800;SDS011;15181;49.112;11.930;2022-10-16T05:13:14;16.80;;;15.77;;
27800;SDS011;15181;49.112;11.930;2022-10-16T05:15:40;16.88;;;15.82;;
27800;SDS011;15181;49.112;11.930;2022-10-16T05:18:08;18.10;;;16.50;;
27800;SDS011;15181;49.112;11.930;2022-10-16T05:20:35;16.98;;;15.88;;
27800;SDS011;15181;49.112;11.930;2022-10-16T05:23:03;16.58;;;15.57;;
27800;SDS011;15181;49.112;11.930;2022-10-16T05:25:30;16.75;;;15.77;;
27800;SDS011;15181;49.112;11.930;2022-10-16T05:27:57;17.00;;;15.80;;
27800;SDS011;15181;49.112;11.930;2022-10-16T05:30:24;16.65;;;15.57;;
27800;SDS011;15181;49.112;11.930;2022-10-16T05:32:51;18.23;;;16.10;;
27800;SDS011;15181;49.112;11.930;2022-10-16T05:35:18;17.55;;;16.10;;
27800;SDS011;15181;49.112;11.930;2022-10-16T05:37:46;17.27;;;15.88;;
27800;SDS011;15181;49.112;11.930;2022-10-16T05:40:15;17.65;;;16.38;;
27800;SDS011;15181;49.112;11.930;2022-10-16T05:42:42;17.13;;;16.00;;
27800;SDS011;15181;49.112;11.930;2022-10-16T05:45:09;17.23;;;16.10;;
27800;SDS011;15181;49.112;11.930;2022-10-16T05:47:37;17.83;;;16.52;;
27800;SDS011;15181;49.112;11.930;2022-10-16T05:50:05;17.52;;;16.33;;
27800;SDS011;15181;49.112;11.930;2022-10-16T05:52:32;17.65;;;16.40;;
27800;SDS011;15181;49.112;11.930;2022-10-16T05:54:59;17.67;;;16.50;;
27800;SDS011;15181;49.112;11.930;2022-10-16T05:57:27;18.77;;;17.38;;
27800;SDS011;15181;49.112;11.930;2022-10-16T05:59:54;18.88;;;17.70;;
27800;SDS011;15181;49.112;11.930;2022-10-16T06:02:21;19.02;;;17.77;;
27800;SDS011;15181;49.112;11.930;2022-10-16T06:04:48;18.85;;;17.55;;
27800;SDS011;15181;49.112;11.930;2022-10-16T06:07:18;19.20;;;17.80;;
27800;SDS011;15181;49.112;11.930;2022-10-16T06:09:47;19.10;;;17.90;;
27800;SDS011;15181;49.112;11.930;2022-10-16T06:12:15;19.05;;;17.85;;
27800;SDS011;15181;49.112;11.930;2022-10-16T06:14:43;18.40;;;17.10;;
27800;SDS011;15181;49.112;11.930;2022-10-16T06:17:11;18.50;;;17.25;;
27800;SDS011;15181;49.112;11.930;2022-10-16T06:19:38;18.35;;;17.25;;
27800;SDS011;15181;49.112;11.930;2022-10-16T06:22:06;18.45;;;17.35;;
27800;SDS011;15181;49.112;11.930;2022-10-16T06:24:33;17.55;;;16.45;;
27800;SDS011;15181;49.112;11.930;2022-10-16T06:27:00;18.25;;;16.92;;
27800;SDS011;15181;49.112;11.930;2022-10-16T06:29:26;19.50;;;18.23;;
27800;SDS011;15181;49.112;11.930;2022-10-16T06:31:55;18.63;;;17.42;;
27800;SDS011;15181;49.112;11.930;2022-10-16T06:34:22;19.05;;;17.85;;
27800;SDS011;15181;49.112;11.930;2022-10-16T06:36:49;18.90;;;17.63;;
27800;SDS011;15181;49.112;11.930;2022-10-16T06:39:15;18.88;;;17.77;;
27800;SDS011;15181;49.112;11.930;2022-10-16T06:41:42;18.65;;;17.45;;
27800;SDS011;15181;49.112;11.930;2022-10-16T06:44:09;18.55;;;17.35;;
27800;SDS011;15181;49.112;11.930;2022-10-16T06:46:36;18.70;;;17.50;;
27800;SDS011;15181;49.112;11.930;2022-10-16T06:49:04;19.00;;;17.80;;
27800;SDS011;15181;49.112;11.930;2022-10-16T06:51:31;19.80;;;18.48;;
27800;SDS011;15181;49.112;11.930;2022-10-16T06:54:00;20.40;;;18.75;;
27800;SDS011;15181;49.112;11.930;2022-10-16T06:56:27;20.23;;;18.55;;
27800;SDS011;15181;49.112;11.930;2022-10-16T06:58:55;20.00;;;18.60;;
27800;SDS011;15181;49.112;11.930;2022-10-16T07:01:23;19.30;;;17.98;;
27800;SDS011;15181;49.112;11.930;2022-10-16T07:03:52;18.65;;;17.55;;
27800;SDS011;15181;49.112;11.930;2022-10-16T07:06:21;18.73;;;17.52;;
27800;SDS011;15181;49.112;11.930;2022-10-16T07:08:50;19.35;;;18.15;;
27800;SDS011;15181;49.112;11.930;2022-10-16T07:11:17;19.65;;;18.38;;
27800;SDS011;15181;49.112;11.930;2022-10-16T07:13:46;20.13;;;18.75;;
27800;SDS011;15181;49.112;11.930;2022-10-16T07:16:14;19.65;;;18.50;;
27800;SDS011;15181;49.112;11.930;2022-10-16T07:18:43;19.10;;;17.90;;
27800;SDS011;15181;49.112;11.930;2022-10-16T07:21:12;18.50;;;17.30;;
27800;SDS011;15181;49.112;11.930;2022-10-16T07:23:42;18.05;;;17.00;;
27800;SDS011;15181;49.112;11.930;2022-10-16T07:26:10;19.00;;;17.90;;
27800;SDS011;15181;49.112;11.930;2022-10-16T07:28:37;17.90;;;16.83;;
27800;SDS011;15181;49.112;11.930;2022-10-16T07:31:06;17.73;;;16.73;;
27800;SDS011;15181;49.112;11.930;2022-10-16T07:33:35;18.75;;;17.38;;
27800;SDS011;15181;49.112;11.930;2022-10-16T07:36:03;18.58;;;17.42;;
27800;SDS011;15181;49.112;11.930;2022-10-16T07:38:31;19.27;;;17.92;;
27800;SDS011;15181;49.112;11.930;2022-10-16T07:40:59;18.10;;;16.98;;
27800;SDS011;15181;49.112;11.930;2022-10-16T07:43:28;18.02;;;16.92;;
27800;SDS011;15181;49.112;11.930;2022-10-16T07:45:55;18.40;;;17.40;;
27800;SDS011;15181;49.112;11.930;2022-10-16T07:48:22;18.40;;;17.08;;
27800;SDS011;15181;49.112;11.930;2022-10-16T07:50:50;18.40;;;17.30;;
27800;SDS011;15181;49.112;11.930;2022-10-16T07:53:17;17.83;;;16.48;;
27800;SDS011;15181;49.112;11.930;2022-10-16T07:55:44;18.25;;;17.13;;
27800;SDS011;15181;49.112;11.930;2022-10-16T07:58:12;18.38;;;17.15;;
27800;SDS011;15181;49.112;11.930;2022-10-16T08:00:39;18.33;;;17.20;;
27800;SDS011;15181;49.112;11.930;2022-10-16T08:03:06;18.40;;;17.30;;
27800;SDS011;15181;49.112;11.930;2022-10-16T08:05:34;17.70;;;16.70;;
27800;SDS011;15181;49.112;11.930;2022-10-16T08:08:01;17.77;;;16.77;;
27800;SDS011;15181;49.112;11.930;2022-10-16T08:10:28;17.73;;;16.30;;
27800;SDS011;15181;49.112;11.930;2022-10-16T08:12:56;16.95;;;15.77;;
27800;SDS011;15181;49.112;11.930;2022-10-16T08:15:25;16.42;;;15.25;;
27800;SDS011;15181;49.112;11.930;2022-10-16T08:17:56;16.35;;;15.35;;
27800;SDS011;15181;49.112;11.930;2022-10-16T08:20:24;16.25;;;15.30;;
27800;SDS011;15181;49.112;11.930;2022-10-16T08:22:51;16.23;;;15.32;;
27800;SDS011;15181;49.112;11.930;2022-10-16T08:25:19;16.45;;;15.43;;
27800;SDS011;15181;49.112;11.930;2022-10-16T08:27:46;15.93;;;15.00;;
27800;SDS011;15181;49.112;11.930;2022-10-16T08:30:13;16.08;;;14.98;;
27800;SDS011;15181;49.112;11.930;2022-10-16T08:32:42;15.55;;;14.60;;
27800;SDS011;15181;49.112;11.930;2022-10-16T08:35:09;15.77;;;14.73;;
27800;SDS011;15181;49.112;11.930;2022-10-16T08:37:36;16.40;;;15.00;;
27800;SDS011;15181;49.112;11.930;2022-10-16T08:40:05;15.40;;;14.50;;
27800;SDS011;15181;49.112;11.930;2022-10-16T08:42:42;21.27;;;15.02;;
27800;SDS011;15181;49.112;11.930;2022-10-16T08:45:28;16.63;;;15.30;;
27800;SDS011;15181;49.112;11.930;2022-10-16T08:48:14;16.45;;;15.40;;
27800;SDS011;15181;49.112;11.930;2022-10-16T08:50:46;16.45;;;15.32;;
27800;SDS011;15181;49.112;11.930;2022-10-16T08:53:16;16.23;;;15.23;;
27800;SDS011;15181;49.112;11.930;2022-10-16T08:55:49;16.50;;;15.30;;
27800;SDS011;15181;49.112;11.930;2022-10-16T08:58:18;16.13;;;15.13;;
27800;SDS011;15181;49.112;11.930;2022-10-16T09:00:47;16.25;;;15.20;;
27800;SDS011;15181;49.112;11.930;2022-10-16T09:03:27;15.77;;;14.88;;
27800;SDS011;15181;49.112;11.930;2022-10-16T09:09:14;16.02;;;14.90;;
27800;SDS011;15181;49.112;11.930;2022-10-16T09:11:57;16.02;;;15.00;;
27800;SDS011;15181;49.112;11.930;2022-10-16T09:17:32;15.90;;;14.82;;
27800;SDS011;15181;49.112;11.930;2022-10-16T09:20:18;16.23;;;15.13;;
27800;SDS011;15181;49.112;11.930;2022-10-16T09:22:53;15.18;;;14.18;;
27800;SDS011;15181;49.112;11.930;2022-10-16T09:25:25;15.60;;;14.57;;
27800;SDS011;15181;49.112;11.930;2022-10-16T09:27:52;15.93;;;14.60;;
27800;SDS011;15181;49.112;11.930;2022-10-16T09:30:20;15.18;;;14.20;;
27800;SDS011;15181;49.112;11.930;2022-10-16T09:32:48;14.90;;;13.80;;
27800;SDS011;15181;49.112;11.930;2022-10-16T09:35:20;14.43;;;13.52;;
27800;SDS011;15181;49.112;11.930;2022-10-16T09:37:49;13.43;;;12.50;;
27800;SDS011;15181;49.112;11.930;2022-10-16T09:40:26;13.88;;;12.95;;
27800;SDS011;15181;49.112;11.930;2022-10-16T09:42:58;14.07;;;13.00;;
27800;SDS011;15181;49.112;11.930;2022-10-16T09:45:29;13.82;;;12.77;;
27800;SDS011;15181;49.112;11.930;2022-10-16T09:47:57;13.60;;;12.60;;
27800;SDS011;15181;49.112;11.930;2022-10-16T09:50:26;13.93;;;12.90;;
27800;SDS011;15181;49.112;11.930;2022-10-16T09:53:04;13.20;;;12.30;;
27800;SDS011;15181;49.112;11.930;2022-10-16T09:55:32;13.40;;;12.60;;
27800;SDS011;15181;49.112;11.930;2022-10-16T09:57:59;13.88;;;12.98;;
27800;SDS011;15181;49.112;11.930;2022-10-16T10:00:26;14.40;;;13.13;;
27800;SDS011;15181;49.112;11.930;2022-10-16T10:02:53;14.70;;;13.48;;
27800;SDS011;15181;49.112;11.930;2022-10-16T10:05:21;14.30;;;13.30;;
27800;SDS011;15181;49.112;11.930;2022-10-16T10:07:54;14.15;;;13.25;;
27800;SDS011;15181;49.112;11.930;2022-10-16T10:10:24;14.23;;;13.32;;
27800;SDS011;15181;49.112;11.930;2022-10-16T10:12:53;15.20;;;13.88;;
27800;SDS011;15181;49.112;11.930;2022-10-16T10:15:21;14.43;;;13.63;;
27800;SDS011;15181;49.112;11.930;2022-10-16T10:17:50;14.70;;;13.90;;
27800;SDS011;15181;49.112;11.930;2022-10-16T10:20:22;15.50;;;14.45;;
27800;SDS011;15181;49.112;11.930;2022-10-16T10:22:51;14.82;;;14.02;;
27800;SDS011;15181;49.112;11.930;2022-10-16T10:25:38;16.13;;;15.02;;
27800;SDS011;15181;49.112;11.930;2022-10-16T10:28:20;15.77;;;14.77;;
27800;SDS011;15181;49.112;11.930;2022-10-16T10:31:08;15.43;;;14.52;;
27800;SDS011;15181;49.112;11.930;2022-10-16T10:33:41;15.57;;;14.57;;
27800;SDS011;15181;49.112;11.930;2022-10-16T10:36:16;15.02;;;14.02;;
27800;SDS011;15181;49.112;11.930;2022-10-16T10:38:56;14.73;;;13.85;;
27800;SDS011;15181;49.112;11.930;2022-10-16T10:41:37;14.05;;;13.25;;
27800;SDS011;15181;49.112;11.930;2022-10-16T10:47:25;15.10;;;14.20;;
27800;SDS011;15181;49.112;11.930;2022-10-16T10:49:57;14.77;;;13.88;;
27800;SDS011;15181;49.112;11.930;2022-10-16T10:52:39;14.80;;;13.65;;
27800;SDS011;15181;49.112;11.930;2022-10-16T10:55:17;14.77;;;13.73;;
27800;SDS011;15181;49.112;11.930;2022-10-16T10:57:59;14.95;;;14.10;;
27800;SDS011;15181;49.112;11.930;2022-10-16T11:00:49;14.95;;;13.80;;
27800;SDS011;15181;49.112;11.930;2022-10-16T11:03:31;14.38;;;13.48;;
27800;SDS011;15181;49.112;11.930;2022-10-16T11:06:07;15.35;;;14.05;;
27800;SDS011;15181;49.112;11.930;2022-10-16T11:08:37;14.85;;;13.77;;
27800;SDS011;15181;49.112;11.930;2022-10-16T11:11:09;14.73;;;13.60;;
27800;SDS011;15181;49.112;11.930;2022-10-16T11:13:43;13.93;;;13.13;;
27800;SDS011;15181;49.112;11.930;2022-10-16T11:16:20;14.35;;;13.55;;
27800;SDS011;15181;49.112;11.930;2022-10-16T11:18:56;14.70;;;13.85;;
27800;SDS011;15181;49.112;11.930;2022-10-16T11:21:30;14.23;;;13.43;;
27800;SDS011;15181;49.112;11.930;2022-10-16T11:24:04;14.15;;;13.23;;
27800;SDS011;15181;49.112;11.930;2022-10-16T11:26:41;14.75;;;13.65;;
27800;SDS011;15181;49.112;11.930;2022-10-16T11:29:12;14.68;;;13.70;;
27800;SDS011;15181;49.112;11.930;2022-10-16T11:31:46;13.77;;;12.98;;
27800;SDS011;15181;49.112;11.930;2022-10-16T11:34:17;14.75;;;13.73;;
27800;SDS011;15181;49.112;11.930;2022-10-16T11:39:20;15.00;;;14.07;;
27800;SDS011;15181;49.112;11.930;2022-10-16T11:41:49;14.98;;;13.95;;
27800;SDS011;15181;49.112;11.930;2022-10-16T11:44:23;16.05;;;14.82;;
27800;SDS011;15181;49.112;11.930;2022-10-16T11:47:06;15.20;;;14.30;;
27800;SDS011;15181;49.112;11.930;2022-10-16T11:49:41;15.43;;;14.45;;
27800;SDS011;15181;49.112;11.930;2022-10-16T11:52:12;15.07;;;13.90;;
27800;SDS011;15181;49.112;11.930;2022-10-16T11:54:47;15.05;;;14.07;;
27800;SDS011;15181;49.112;11.930;2022-10-16T11:57:20;15.30;;;14.23;;
27800;SDS011;15181;49.112;11.930;2022-10-16T11:59:52;15.50;;;14.50;;
27800;SDS011;15181;49.112;11.930;2022-10-16T12:02:32;14.82;;;13.93;;
27800;SDS011;15181;49.112;11.930;2022-10-16T12:05:18;15.68;;;14.52;;
27800;SDS011;15181;49.112;11.930;2022-10-16T12:07:51;16.23;;;15.23;;
27800;SDS011;15181;49.112;11.930;2022-10-16T12:10:27;14.93;;;14.00;;
27800;SDS011;15181;49.112;11.930;2022-10-16T12:12:57;15.70;;;14.70;;
27800;SDS011;15181;49.112;11.930;2022-10-16T12:15:25;14.70;;;13.80;;
27800;SDS011;15181;49.112;11.930;2022-10-16T12:17:54;15.85;;;14.73;;
27800;SDS011;15181;49.112;11.930;2022-10-16T12:20:26;15.90;;;14.38;;
27800;SDS011;15181;49.112;11.930;2022-10-16T12:22:58;15.20;;;14.30;;
27800;SDS011;15181;49.112;11.930;2022-10-16T12:25:27;15.30;;;14.43;;
27800;SDS011;15181;49.112;11.930;2022-10-16T12:27:56;15.20;;;14.10;;
27800;SDS011;15181;49.112;11.930;2022-10-16T12:30:26;15.20;;;14.20;;
27800;SDS011;15181;49.112;11.930;2022-10-16T12:32:56;18.98;;;17.35;;
27800;SDS011;15181;49.112;11.930;2022-10-16T12:35:27;15.10;;;14.27;;
27800;SDS011;15181;49.112;11.930;2022-10-16T12:38:04;15.93;;;14.93;;
27800;SDS011;15181;49.112;11.930;2022-10-16T12:40:40;15.30;;;14.40;;
27800;SDS011;15181;49.112;11.930;2022-10-16T12:46:06;23.38;;;21.73;;
27800;SDS011;15181;49.112;11.930;2022-10-16T12:48:48;15.70;;;14.80;;
27800;SDS011;15181;49.112;11.930;2022-10-16T12:51:22;15.07;;;14.27;;
27800;SDS011;15181;49.112;11.930;2022-10-16T12:54:00;15.43;;;14.52;;
27800;SDS011;15181;49.112;11.930;2022-10-16T12:56:32;16.00;;;15.00;;
27800;SDS011;15181;49.112;11.930;2022-10-16T12:59:08;15.80;;;14.75;;
27800;SDS011;15181;49.112;11.930;2022-10-16T13:01:47;15.30;;;14.50;;
27800;SDS011;15181;49.112;11.930;2022-10-16T13:07:48;15.27;;;14.32;;
27800;SDS011;15181;49.112;11.930;2022-10-16T13:10:25;15.38;;;14.50;;
27800;SDS011;15181;49.112;11.930;2022-10-16T13:13:01;15.30;;;14.45;;
27800;SDS011;15181;49.112;11.930;2022-10-16T13:15:52;15.30;;;14.32;;
27800;SDS011;15181;49.112;11.930;2022-10-16T13:18:32;29.73;;;27.60;;
27800;SDS011;15181;49.112;11.930;2022-10-16T13:21:16;21.88;;;20.17;;
27800;SDS011;15181;49.112;11.930;2022-10-16T13:23:53;16.60;;;15.27;;
27800;SDS011;15181;49.112;11.930;2022-10-16T13:26:28;15.30;;;14.50;;
27800;SDS011;15181;49.112;11.930;2022-10-16T13:29:04;15.85;;;14.95;;
27800;SDS011;15181;49.112;11.930;2022-10-16T13:31:31;15.50;;;14.60;;
27800;SDS011;15181;49.112;11.930;2022-10-16T13:34:00;15.43;;;14.43;;
27800;SDS011;15181;49.112;11.930;2022-10-16T13:36:28;15.50;;;14.27;;
27800;SDS011;15181;49.112;11.930;2022-10-16T13:39:00;15.38;;;14.30;;
27800;SDS011;15181;49.112;11.930;2022-10-16T13:41:37;16.42;;;15.27;;
27800;SDS011;15181;49.112;11.930;2022-10-16T13:44:04;15.30;;;14.38;;
27800;SDS011;15181;49.112;11.930;2022-10-16T13:46:34;15.18;;;14.38;;
27800;SDS011;15181;49.112;11.930;2022-10-16T13:49:03;16.50;;;15.40;;
27800;SDS011;15181;49.112;11.930;2022-10-16T13:51:32;15.23;;;14.32;;
27800;SDS011;15181;49.112;11.930;2022-10-16T13:53:59;16.67;;;14.60;;
27800;SDS011;15181;49.112;11.930;2022-10-16T13:56:27;21.23;;;17.55;;
27800;SDS011;15181;49.112;11.930;2022-10-16T13:58:58;15.45;;;14.50;;
27800;SDS011;15181;49.112;11.930;2022-10-16T14:01:27;16.65;;;15.38;;
27800;SDS011;15181;49.112;11.930;2022-10-16T14:04:00;15.70;;;14.60;;
27800;SDS011;15181;49.112;11.930;2022-10-16T14:06:32;15.27;;;14.10;;
27800;SDS011;15181;49.112;11.930;2022-10-16T14:08:59;14.93;;;13.90;;
27800;SDS011;15181;49.112;11.930;2022-10-16T14:11:31;15.02;;;13.80;;
27800;SDS011;15181;49.112;11.930;2022-10-16T14:13:58;14.48;;;13.60;;
27800;SDS011;15181;49.112;11.930;2022-10-16T14:16:28;14.80;;;13.80;;
27800;SDS011;15181;49.112;11.930;2022-10-16T14:18:57;15.02;;;14.00;;
27800;SDS011;15181;49.112;11.930;2022-10-16T14:21:27;15.30;;;14.38;;
27800;SDS011;15181;49.112;11.930;2022-10-16T14:23:54;15.15;;;14.05;;
27800;SDS011;15181;49.112;11.930;2022-10-16T14:26:22;14.95;;;13.98;;
27800;SDS011;15181;49.112;11.930;2022-10-16T14:29:02;14.10;;;13.20;;
27800;SDS011;15181;49.112;11.930;2022-10-16T14:31:36;14.05;;;13.20;;
27800;SDS011;15181;49.112;11.930;2022-10-16T14:34:04;14.82;;;13.73;;
27800;SDS011;15181;49.112;11.930;2022-10-16T14:36:55;14.50;;;13.50;;
27800;SDS011;15181;49.112;11.930;2022-10-16T14:39:23;14.20;;;13.40;;
27800;SDS011;15181;49.112;11.930;2022-10-16T14:41:52;14.55;;;13.50;;
27800;SDS011;15181;49.112;11.930;2022-10-16T14:44:22;14.35;;;13.20;;